Time;durP1;ratioP1;P1;durP2;ratioP2;P2;SDS_P1;SDS_P2;PMS_P1;PMS_P2;Temp;Humidity;BMP_temperature;BMP_pressure;BME280_temperature;BME280_humidity;BME280_pressure;Samples;Min_cycle;Max_cycle;Signal;HPM_P1;HPM_P2
2021/01/06 00:00:55;;;;;;;0.00;0.00;;;3.30;99.90;;;;;;5051445;28;20036;-88
2021/01/06 00:03:22;;;;;;;2.05;1.95;;;3.30;99.90;;;;;;5051921;28;20032;-88
2021/01/06 00:05:53;;;;;;;0.00;0.00;;;3.30;99.90;;;;;;5051736;28;20040;-88
2021/01/06 00:08:20;;;;;;;0.00;0.00;;;3.30;99.90;;;;;;5051837;28;20131;-88
2021/01/06 00:10:54;;;;;;;0.00;0.00;;;3.20;99.90;;;;;;5051526;28;20123;-89
2021/01/06 00:13:19;;;;;;;0.00;0.00;;;3.30;99.90;;;;;;5051895;28;20033;-88
2021/01/06 00:15:46;;;;;;;0.00;0.00;;;3.20;99.90;;;;;;5051699;28;20036;-88
2021/01/06 00:18:13;;;;;;;0.00;0.00;;;3.20;99.90;;;;;;5051456;28;20036;-89
2021/01/06 00:20:38;;;;;;;0.00;0.00;;;3.20;99.90;;;;;;5051488;28;20044;-89
2021/01/06 00:23:04;;;;;;;0.00;0.00;;;3.20;99.90;;;;;;5068340;28;20043;-89
2021/01/06 00:25:34;;;;;;;0.00;0.00;;;3.20;99.90;;;;;;5051313;28;20039;-89
2021/01/06 00:28:01;;;;;;;0.00;0.00;;;3.20;99.90;;;;;;5068149;28;20064;-89
2021/01/06 00:30:26;;;;;;;0.00;0.00;;;3.20;99.90;;;;;;5061353;28;20033;-88
2021/01/06 00:32:52;;;;;;;0.00;0.00;;;3.20;99.90;;;;;;5064824;28;20056;-89
2021/01/06 00:35:19;;;;;;;0.00;0.00;;;3.20;99.90;;;;;;5031478;28;20060;-89
2021/01/06 00:37:45;;;;;;;0.00;0.00;;;3.20;99.90;;;;;;5048327;28;20096;-88
2021/01/06 00:40:11;;;;;;;0.00;0.00;;;3.20;99.90;;;;;;5031697;28;20041;-88
2021/01/06 00:42:38;;;;;;;1.10;0.17;;;3.20;99.90;;;;;;5031417;28;20044;-88
2021/01/06 00:45:06;;;;;;;0.00;0.00;;;3.20;99.90;;;;;;5048183;28;20043;-88
2021/01/06 00:47:32;;;;;;;0.00;0.00;;;3.20;99.90;;;;;;5031213;28;20033;-88
2021/01/06 00:49:59;;;;;;;0.00;0.00;;;3.20;99.90;;;;;;5031867;28;20037;-89
2021/01/06 00:52:24;;;;;;;0.00;0.00;;;3.20;99.90;;;;;;5031443;28;20592;-88
2021/01/06 00:54:50;;;;;;;0.00;0.00;;;3.20;99.90;;;;;;5049690;23;20113;-90
2021/01/06 00:57:16;;;;;;;0.00;0.00;;;3.20;99.90;;;;;;5011117;28;20096;-89
2021/01/06 00:59:42;;;;;;;0.00;0.00;;;3.20;99.90;;;;;;5011705;28;20045;-89
2021/01/06 01:02:08;;;;;;;0.00;0.00;;;3.20;99.90;;;;;;5011690;28;20033;-89
2021/01/06 01:04:33;;;;;;;0.00;0.00;;;3.10;99.90;;;;;;5011746;28;20113;-89
2021/01/06 01:06:59;;;;;;;0.00;0.00;;;3.10;99.90;;;;;;5011773;28;20029;-88
2021/01/06 01:09:25;;;;;;;0.00;0.00;;;3.10;99.90;;;;;;5011522;28;20045;-89
2021/01/06 01:11:51;;;;;;;0.00;0.00;;;3.10;99.90;;;;;;5011375;28;20041;-88
2021/01/06 01:14:16;;;;;;;0.00;0.00;;;3.10;99.90;;;;;;5014065;28;20045;-89
2021/01/06 01:16:42;;;;;;;2.85;2.72;;;3.10;99.90;;;;;;5015014;28;20044;-88
2021/01/06 01:19:12;;;;;;;0.00;0.00;;;3.10;99.90;;;;;;5014994;28;20048;-89
2021/01/06 01:21:38;;;;;;;0.10;0.10;;;3.10;99.90;;;;;;5015054;28;20044;-89
2021/01/06 01:24:05;;;;;;;0.00;0.00;;;3.10;99.90;;;;;;5014689;28;20044;-88
2021/01/06 01:26:31;;;;;;;0.00;0.00;;;3.10;99.90;;;;;;5014856;28;20053;-89
2021/01/06 01:28:56;;;;;;;0.00;0.00;;;3.10;99.90;;;;;;5014813;28;20037;-88
2021/01/06 01:31:31;;;;;;;0.00;0.00;;;3.10;99.90;;;;;;5000724;28;20390;-88
2021/01/06 01:33:56;;;;;;;0.10;0.10;;;3.10;99.90;;;;;;5011311;28;20049;-89
2021/01/06 01:36:22;;;;;;;0.00;0.00;;;3.10;99.90;;;;;;5011561;28;20045;-88
2021/01/06 01:38:48;;;;;;;0.00;0.00;;;3.10;99.90;;;;;;4995194;28;20034;-88
2021/01/06 01:41:21;;;;;;;0.00;0.00;;;3.10;99.90;;;;;;5011173;28;20038;-88
2021/01/06 01:43:47;;;;;;;0.00;0.00;;;3.10;99.90;;;;;;5011196;28;20049;-88
2021/01/06 01:46:35;;;;;;;0.00;0.00;;;3.10;99.90;;;;;;4994966;28;20409;-89
2021/01/06 01:49:03;;;;;;;0.00;0.00;;;3.10;99.90;;;;;;4995143;28;20555;-87
2021/01/06 01:51:39;;;;;;;0.00;0.00;;;3.10;99.90;;;;;;5011095;28;20038;-90
2021/01/06 01:54:14;;;;;;;0.00;0.00;;;3.10;99.90;;;;;;4994488;28;20054;-87
2021/01/06 01:57:05;;;;;;;0.00;0.00;;;3.10;99.90;;;;;;5010793;28;20105;-88
2021/01/06 01:59:58;;;;;;;0.00;0.00;;;3.10;99.90;;;;;;5011045;28;20045;-88
2021/01/06 02:02:34;;;;;;;0.00;0.00;;;3.10;99.90;;;;;;4994774;28;20134;-89
2021/01/06 02:05:14;;;;;;;0.20;0.10;;;3.10;99.90;;;;;;4995027;28;20406;-88
2021/01/06 02:07:51;;;;;;;0.00;0.00;;;3.10;99.90;;;;;;4994661;28;20041;-89
2021/01/06 02:10:31;;;;;;;0.00;0.00;;;3.10;99.90;;;;;;5010974;28;20068;-88
2021/01/06 02:13:22;;;;;;;0.00;0.00;;;3.10;99.90;;;;;;4994403;28;20096;-88
2021/01/06 02:16:08;;;;;;;0.00;0.00;;;3.10;99.90;;;;;;4994514;28;20447;-88
2021/01/06 02:18:34;;;;;;;0.00;0.00;;;3.10;99.90;;;;;;5010967;28;20064;-88
2021/01/06 02:21:08;;;;;;;0.00;0.00;;;3.10;99.90;;;;;;5010526;28;20113;-88
2021/01/06 02:23:34;;;;;;;0.00;0.00;;;3.10;99.90;;;;;;5010478;28;20042;-88
2021/01/06 02:26:00;;;;;;;0.00;0.00;;;3.00;99.90;;;;;;4993266;28;20053;-89
2021/01/06 02:28:27;;;;;;;0.00;0.00;;;3.00;99.90;;;;;;4994079;28;20044;-91
2021/01/06 02:30:53;;;;;;;0.00;0.00;;;3.00;99.90;;;;;;4994185;28;20046;-89
2021/01/06 02:33:19;;;;;;;0.00;0.00;;;3.00;99.90;;;;;;4994238;28;20096;-89
2021/01/06 02:35:44;;;;;;;0.00;0.00;;;3.00;99.90;;;;;;4994114;28;20068;-89
2021/01/06 02:38:10;;;;;;;0.00;0.00;;;3.00;99.90;;;;;;4994260;28;20037;-89
2021/01/06 02:40:36;;;;;;;0.75;0.75;;;3.00;99.90;;;;;;4994393;28;20042;-89
2021/01/06 02:43:03;;;;;;;0.00;0.00;;;3.00;99.90;;;;;;4993750;28;20041;-88
2021/01/06 02:45:29;;;;;;;0.00;0.00;;;3.00;99.90;;;;;;4994122;28;20509;-88
2021/01/06 02:47:54;;;;;;;0.00;0.00;;;3.00;99.90;;;;;;4993883;28;20045;-89
2021/01/06 02:50:26;;;;;;;0.00;0.00;;;3.00;99.90;;;;;;4994047;28;20126;-89
2021/01/06 02:53:03;;;;;;;0.00;0.00;;;3.00;99.90;;;;;;4993769;28;20042;-89
2021/01/06 02:55:31;;;;;;;0.00;0.00;;;3.00;99.90;;;;;;4999676;28;20041;-88
2021/01/06 02:58:01;;;;;;;0.00;0.00;;;2.90;99.90;;;;;;4991460;28;20046;-89
2021/01/06 03:00:27;;;;;;;0.00;0.00;;;2.90;99.90;;;;;;5006585;28;20049;-89
2021/01/06 03:02:54;;;;;;;0.00;0.00;;;3.00;99.90;;;;;;5024531;28;20034;-88
2021/01/06 03:05:41;;;;;;;0.00;0.00;;;2.90;99.90;;;;;;5008080;28;20045;-88
2021/01/06 03:08:11;;;;;;;0.00;0.00;;;2.90;99.90;;;;;;4992212;28;20034;-88
2021/01/06 03:10:37;;;;;;;0.00;0.00;;;2.90;99.90;;;;;;5007834;28;20054;-89
2021/01/06 03:13:04;;;;;;;0.00;0.00;;;2.90;99.90;;;;;;5006265;28;20034;-88
2021/01/06 03:15:30;;;;;;;0.00;0.00;;;2.90;99.90;;;;;;5006210;28;20069;-89
2021/01/06 03:17:57;;;;;;;0.00;0.00;;;2.90;99.90;;;;;;5022598;28;20051;-88
2021/01/06 03:20:39;;;;;;;0.00;0.00;;;2.80;99.90;;;;;;4989868;28;20114;-88
2021/01/06 03:23:13;;;;;;;2.35;1.17;;;2.80;99.90;;;;;;4989719;28;20050;-89
2021/01/06 03:25:41;;;;;;;0.00;0.00;;;2.80;99.90;;;;;;4989843;28;20065;-89
2021/01/06 03:28:10;;;;;;;0.00;0.00;;;2.80;99.90;;;;;;4989867;28;20046;-89
2021/01/06 03:30:36;;;;;;;0.00;0.00;;;2.80;99.90;;;;;;4981963;28;20037;-88
2021/01/06 03:33:02;;;;;;;0.00;0.00;;;2.80;99.90;;;;;;4986391;28;20050;-89
2021/01/06 03:35:38;;;;;;;0.00;0.00;;;2.80;99.90;;;;;;5002093;28;20051;-89
2021/01/06 03:38:22;;;;;;;0.00;0.00;;;2.80;99.90;;;;;;4986461;28;20119;-88
2021/01/06 03:40:50;;;;;;;0.00;0.00;;;2.80;99.90;;;;;;4986980;28;20066;-88
2021/01/06 03:43:17;;;;;;;0.00;0.00;;;2.80;99.90;;;;;;4986377;28;20073;-89
2021/01/06 03:45:48;;;;;;;0.00;0.00;;;2.80;99.90;;;;;;4986106;28;20039;-89
2021/01/06 03:48:32;;;;;;;0.00;0.00;;;2.80;99.90;;;;;;4986361;28;20038;-90
2021/01/06 03:51:04;;;;;;;0.00;0.00;;;2.80;99.90;;;;;;5002530;28;20062;-88
2021/01/06 03:54:02;;;;;;;0.00;0.00;;;2.70;99.90;;;;;;4986061;28;20067;-89
2021/01/06 03:56:32;;;;;;;0.00;0.00;;;2.80;99.90;;;;;;4931362;29;20055;-89
2021/01/06 03:59:22;;;;;;;0.00;0.00;;;2.80;99.90;;;;;;4949743;29;20483;-88
2021/01/06 04:02:14;;;;;;;0.00;0.00;;;2.70;99.90;;;;;;4949617;29;20039;-89
2021/01/06 04:04:47;;;;;;;0.00;0.00;;;2.80;99.90;;;;;;4933679;29;20049;-89
2021/01/06 04:07:34;;;;;;;0.00;0.00;;;2.70;99.90;;;;;;4965659;29;20094;-88
2021/01/06 04:10:07;;;;;;;0.00;0.00;;;2.70;99.90;;;;;;4943409;29;20050;-89
2021/01/06 04:12:32;;;;;;;0.00;0.00;;;2.70;99.90;;;;;;4949736;29;20127;-89
2021/01/06 04:14:58;;;;;;;0.00;0.00;;;2.70;99.90;;;;;;4965662;29;20582;-88
2021/01/06 04:17:31;;;;;;;0.00;0.00;;;2.70;99.90;;;;;;4949691;29;20242;-88
2021/01/06 04:20:22;;;;;;;0.00;0.00;;;2.70;99.90;;;;;;4949813;29;20043;-88
2021/01/06 04:22:49;;;;;;;0.00;0.00;;;2.70;99.90;;;;;;4960928;29;20035;-88
2021/01/06 04:25:25;;;;;;;0.15;0.05;;;2.70;99.90;;;;;;4949326;29;20043;-88
2021/01/06 04:28:01;;;;;;;0.52;0.38;;;2.70;99.90;;;;;;4949598;29;20480;-88
2021/01/06 04:30:41;;;;;;;0.05;0.05;;;2.70;99.90;;;;;;4933215;29;20032;-88
2021/01/06 04:33:26;;;;;;;0.00;0.00;;;2.60;99.90;;;;;;4962151;28;20194;-88
2021/01/06 04:35:53;;;;;;;0.00;0.00;;;2.70;99.90;;;;;;5001917;28;20050;-89
2021/01/06 04:38:29;;;;;;;0.00;0.00;;;2.70;99.90;;;;;;4969526;28;20039;-88
2021/01/06 04:41:21;;;;;;;0.00;0.00;;;2.70;99.90;;;;;;4985738;28;20082;-89
2021/01/06 04:44:04;;;;;;;0.00;0.00;;;2.70;99.90;;;;;;4969610;28;20070;-89
2021/01/06 04:46:48;;;;;;;0.00;0.00;;;2.60;99.90;;;;;;4969279;28;20038;-88
2021/01/06 04:49:37;;;;;;;0.00;0.00;;;2.70;99.90;;;;;;4988428;28;20070;-89
2021/01/06 04:52:25;;;;;;;0.00;0.00;;;2.60;99.90;;;;;;5005765;28;20114;-88
2021/01/06 04:55:16;;;;;;;0.00;0.00;;;2.60;99.90;;;;;;4975133;28;20047;-88
2021/01/06 04:58:01;;;;;;;0.00;0.00;;;2.60;99.90;;;;;;4996041;28;20055;-87
2021/01/06 05:00:52;;;;;;;0.00;0.00;;;2.60;99.90;;;;;;5025297;28;20042;-89
2021/01/06 05:03:49;;;;;;;4.63;2.28;;;2.60;99.90;;;;;;5008704;28;20053;-87
2021/01/06 05:06:48;;;;;;;0.47;0.20;;;2.50;99.90;;;;;;5008740;28;20045;-88
2021/01/06 05:09:20;;;;;;;0.00;0.00;;;2.60;99.90;;;;;;5008992;28;20042;-87
2021/01/06 05:12:11;;;;;;;0.00;0.00;;;2.50;99.90;;;;;;5008697;28;20042;-89
2021/01/06 05:14:46;;;;;;;0.00;0.00;;;2.50;99.90;;;;;;5008540;28;20050;-87
2021/01/06 05:17:13;;;;;;;0.00;0.00;;;2.50;99.90;;;;;;5008415;28;20046;-88
2021/01/06 05:19:47;;;;;;;0.00;0.00;;;2.50;99.90;;;;;;5024909;28;20069;-89
2021/01/06 05:22:13;;;;;;;1.65;1.38;;;2.50;99.90;;;;;;5008580;28;20038;-88
2021/01/06 05:24:43;;;;;;;0.00;0.00;;;2.50;99.90;;;;;;5024679;28;20046;-89
2021/01/06 05:27:22;;;;;;;0.27;0.10;;;2.50;99.90;;;;;;5008364;28;20034;-89
2021/01/06 05:29:57;;;;;;;0.00;0.00;;;2.40;99.90;;;;;;5007025;28;20281;-87
2021/01/06 05:32:36;;;;;;;0.00;0.00;;;2.40;99.90;;;;;;5002492;28;20078;-86
2021/01/06 05:35:15;;;;;;;0.00;0.00;;;2.40;99.90;;;;;;4988730;28;20474;-86
2021/01/06 05:37:44;;;;;;;0.38;0.38;;;2.40;99.90;;;;;;4988728;28;20043;-86
2021/01/06 05:40:14;;;;;;;0.00;0.00;;;2.40;99.90;;;;;;4988556;28;20039;-87
2021/01/06 05:42:50;;;;;;;0.00;0.00;;;2.40;99.90;;;;;;4988800;28;20074;-86
2021/01/06 05:45:18;;;;;;;0.00;0.00;;;2.40;99.90;;;;;;5004694;28;20039;-86
2021/01/06 05:47:51;;;;;;;0.00;0.00;;;2.40;99.90;;;;;;5003272;28;20043;-86
2021/01/06 05:50:22;;;;;;;0.00;0.00;;;2.40;99.90;;;;;;4985279;28;20047;-86
2021/01/06 05:53:01;;;;;;;0.00;0.00;;;2.40;99.90;;;;;;4969042;28;20047;-86
2021/01/06 05:55:30;;;;;;;0.00;0.00;;;2.40;99.90;;;;;;4993147;28;20347;-87
2021/01/06 05:58:05;;;;;;;0.00;0.00;;;2.40;99.90;;;;;;4990553;28;20635;-87
2021/01/06 06:00:52;;;;;;;0.00;0.00;;;2.40;99.90;;;;;;4971470;28;20047;-87
2021/01/06 06:03:35;;;;;;;0.00;0.00;;;2.40;99.90;;;;;;4971827;28;20598;-86
2021/01/06 06:06:24;;;;;;;0.00;0.00;;;2.30;99.90;;;;;;4971762;28;20035;-87
2021/01/06 06:09:12;;;;;;;0.10;0.10;;;2.30;99.90;;;;;;4964604;28;20107;-86
2021/01/06 06:11:37;;;;;;;0.00;0.00;;;2.30;99.90;;;;;;4971681;28;20035;-87
2021/01/06 06:14:37;;;;;;;0.00;0.00;;;2.20;99.90;;;;;;4938672;29;20114;-86
2021/01/06 06:17:07;;;;;;;0.00;0.00;;;2.20;99.90;;;;;;4956731;28;20035;-86
2021/01/06 06:19:51;;;;;;;0.00;0.00;;;2.10;99.90;;;;;;4970727;28;20031;-86
2021/01/06 06:22:23;;;;;;;0.00;0.00;;;2.10;99.90;;;;;;4971289;28;20034;-86
2021/01/06 06:25:04;;;;;;;0.00;0.00;;;2.10;99.90;;;;;;4971432;28;20046;-85
2021/01/06 06:27:53;;;;;;;0.00;0.00;;;2.10;99.90;;;;;;4970372;28;20046;-85
2021/01/06 06:30:27;;;;;;;0.00;0.00;;;2.10;99.90;;;;;;4968006;29;20039;-85
2021/01/06 06:32:53;;;;;;;0.00;0.00;;;2.10;99.90;;;;;;4952207;29;20066;-85
2021/01/06 06:35:33;;;;;;;0.00;0.00;;;2.10;99.90;;;;;;4965413;28;20047;-85
2021/01/06 06:38:08;;;;;;;;;;;2.10;99.90;;;;;;4971554;28;20070;-86
2021/01/06 06:40:54;;;;;;;0.00;0.00;;;2.10;99.90;;;;;;4971224;28;19910;-85
2021/01/06 06:43:34;;;;;;;0.00;0.00;;;2.10;99.90;;;;;;4970981;28;20035;-85
2021/01/06 06:46:26;;;;;;;0.00;0.00;;;2.00;99.90;;;;;;4971079;28;20042;-86
2021/01/06 06:49:11;;;;;;;0.00;0.00;;;1.90;99.90;;;;;;4983446;28;20039;-85
2021/01/06 06:52:04;;;;;;;0.00;0.00;;;1.90;99.90;;;;;;4970914;28;20212;-86
2021/01/06 06:54:48;;;;;;;0.00;0.00;;;1.90;99.90;;;;;;4971013;28;20607;-86
2021/01/06 06:57:35;;;;;;;0.00;0.00;;;1.90;99.90;;;;;;4967494;28;20103;-86
2021/01/06 07:00:11;;;;;;;0.00;0.00;;;1.90;99.90;;;;;;4983515;28;20039;-85
2021/01/06 07:03:08;;;;;;;0.00;0.00;;;1.90;99.90;;;;;;4951387;29;20067;-85
2021/01/06 07:05:49;;;;;;;0.00;0.00;;;1.90;99.90;;;;;;4963494;28;20042;-86
2021/01/06 07:08:27;;;;;;;0.00;0.00;;;1.90;99.90;;;;;;4983514;28;20039;-85
2021/01/06 07:11:09;;;;;;;0.00;0.00;;;2.00;99.90;;;;;;4982829;28;20110;-85
2021/01/06 07:13:36;;;;;;;0.00;0.00;;;1.90;99.90;;;;;;4967652;29;20050;-86
2021/01/06 07:16:20;;;;;;;0.00;0.00;;;2.00;99.90;;;;;;4983361;28;20043;-86
2021/01/06 07:18:52;;;;;;;0.00;0.00;;;2.00;99.90;;;;;;4983428;28;20035;-85
2021/01/06 07:21:28;;;;;;;0.00;0.00;;;2.00;99.90;;;;;;4966893;29;20039;-86
2021/01/06 07:23:55;;;;;;;0.13;0.13;;;2.00;99.90;;;;;;4983429;28;20053;-86
2021/01/06 07:26:24;;;;;;;0.00;0.00;;;2.00;99.90;;;;;;4967374;29;20035;-85
2021/01/06 07:29:04;;;;;;;0.00;0.00;;;2.00;99.90;;;;;;4983492;28;20555;-85
2021/01/06 07:31:38;;;;;;;0.00;0.00;;;2.00;99.90;;;;;;4997849;28;20066;-85
2021/01/06 07:34:07;;;;;;;0.00;0.00;;;2.00;99.90;;;;;;4970276;28;20042;-85
2021/01/06 07:36:46;;;;;;;0.00;0.00;;;2.00;99.90;;;;;;4970194;28;20451;-85
2021/01/06 07:39:20;;;;;;;0.00;0.00;;;2.10;99.90;;;;;;4986696;28;20031;-85
2021/01/06 07:41:45;;;;;;;0.00;0.00;;;2.00;99.90;;;;;;4970277;28;20058;-86
2021/01/06 07:44:34;;;;;;;0.00;0.00;;;2.00;99.90;;;;;;4986300;28;20054;-86
2021/01/06 07:47:18;;;;;;;2.03;1.90;;;2.10;99.90;;;;;;4969943;28;20043;-86
2021/01/06 07:49:58;;;;;;;0.00;0.00;;;2.10;99.90;;;;;;4970025;28;20042;-85
2021/01/06 07:52:50;;;;;;;0.00;0.00;;;2.10;99.90;;;;;;4970044;28;20066;-86
2021/01/06 07:55:28;;;;;;;0.00;0.00;;;2.10;99.90;;;;;;4981627;28;20058;-85
2021/01/06 07:58:02;;;;;;;0.00;0.00;;;2.10;99.90;;;;;;4966657;28;20051;-86
2021/01/06 08:00:33;;;;;;;0.45;0.45;;;2.10;99.90;;;;;;4950813;29;20065;-86
2021/01/06 08:03:22;;;;;;;0.00;0.00;;;2.10;99.90;;;;;;4950699;29;20042;-85
2021/01/06 08:05:59;;;;;;;0.32;0.32;;;2.10;99.90;;;;;;4950638;29;20126;-85
2021/01/06 08:08:39;;;;;;;2.60;1.75;;;2.10;99.90;;;;;;4950959;29;20047;-86
2021/01/06 08:11:07;;;;;;;0.00;0.00;;;2.10;99.90;;;;;;4950610;29;20496;-85
2021/01/06 08:13:44;;;;;;;0.00;0.00;;;2.10;99.90;;;;;;4950652;29;20059;-85
2021/01/06 08:16:43;;;;;;;0.00;0.00;;;2.10;99.90;;;;;;4950400;29;20039;-85
2021/01/06 08:19:18;;;;;;;0.00;0.00;;;2.10;99.90;;;;;;4950830;29;20074;-85
2021/01/06 08:21:50;;;;;;;0.00;0.00;;;2.10;99.90;;;;;;4966408;28;20111;-85
2021/01/06 08:24:25;;;;;;;0.00;0.00;;;2.20;99.90;;;;;;4970366;29;20043;-85
2021/01/06 08:26:54;;;;;;;0.00;0.00;;;2.20;99.90;;;;;;4971056;28;20046;-87
2021/01/06 08:29:34;;;;;;;0.00;0.00;;;2.20;99.90;;;;;;4969928;29;20064;-85
2021/01/06 08:32:17;;;;;;;0.00;0.00;;;2.20;99.90;;;;;;4972510;28;20070;-86
2021/01/06 08:35:02;;;;;;;0.00;0.00;;;2.20;99.90;;;;;;4973034;28;20149;-86
2021/01/06 08:37:34;;;;;;;0.00;0.00;;;2.20;99.90;;;;;;4973216;28;20039;-86
2021/01/06 08:40:04;;;;;;;0.30;0.30;;;2.20;99.90;;;;;;4973086;28;20043;-86
2021/01/06 08:42:45;;;;;;;0.00;0.00;;;2.20;99.90;;;;;;4972777;28;20085;-86
2021/01/06 08:45:24;;;;;;;0.00;0.00;;;2.20;99.90;;;;;;4972820;28;20039;-84
2021/01/06 08:47:50;;;;;;;0.00;0.00;;;2.20;99.90;;;;;;4972982;28;20158;-85
2021/01/06 08:50:15;;;;;;;0.00;0.00;;;2.20;99.90;;;;;;4973012;28;20043;-85
2021/01/06 08:52:55;;;;;;;0.00;0.00;;;2.20;99.90;;;;;;4972730;28;20043;-85
2021/01/06 08:55:25;;;;;;;0.00;0.00;;;2.20;99.90;;;;;;4983793;28;20047;-85
2021/01/06 08:58:10;;;;;;;0.00;0.00;;;2.20;99.90;;;;;;4953211;29;20468;-84
2021/01/06 09:00:57;;;;;;;0.75;0.75;;;2.20;99.90;;;;;;4970697;28;20035;-85
2021/01/06 09:03:33;;;;;;;0.00;0.00;;;2.20;99.90;;;;;;4969611;29;20038;-85
2021/01/06 09:06:06;;;;;;;0.00;0.00;;;2.30;99.90;;;;;;4953233;29;20054;-85
2021/01/06 09:08:38;;;;;;;1.98;1.85;;;2.20;99.90;;;;;;4953179;29;20130;-85
2021/01/06 09:11:09;;;;;;;0.00;0.00;;;2.20;99.90;;;;;;4953296;29;20508;-86
2021/01/06 09:14:12;;;;;;;1.73;0.15;;;2.30;99.90;;;;;;4953168;29;20054;-88
2021/01/06 09:16:46;;;;;;;0.00;0.00;;;2.30;99.90;;;;;;4969162;29;20040;-85
2021/01/06 09:19:43;;;;;;;1.48;0.43;;;2.30;99.90;;;;;;4953610;29;20047;-85
2021/01/06 09:22:11;;;;;;;0.00;0.00;;;2.30;99.90;;;;;;4952905;29;20043;-85
2021/01/06 09:24:40;;;;;;;0.00;0.00;;;2.30;99.90;;;;;;4952866;29;20049;-85
2021/01/06 09:27:26;;;;;;;1.02;0.55;;;2.30;99.90;;;;;;4969101;29;20086;-85
2021/01/06 09:29:53;;;;;;;0.00;0.00;;;2.20;99.90;;;;;;4954615;28;20067;-85
2021/01/06 09:32:26;;;;;;;0.00;0.00;;;2.30;99.90;;;;;;4972028;28;20129;-86
2021/01/06 09:34:58;;;;;;;0.15;0.15;;;2.30;99.90;;;;;;4971353;28;20058;-84
2021/01/06 09:37:27;;;;;;;0.00;0.00;;;2.30;99.90;;;;;;4972049;28;20049;-85
2021/01/06 09:39:56;;;;;;;0.00;0.00;;;2.30;99.90;;;;;;4972074;28;20039;-85
2021/01/06 09:42:22;;;;;;;0.45;0.20;;;2.30;99.90;;;;;;4988063;28;20182;-84
2021/01/06 09:44:49;;;;;;;0.00;0.00;;;2.30;99.90;;;;;;4972208;28;20472;-85
2021/01/06 09:47:31;;;;;;;0.00;0.00;;;2.20;99.90;;;;;;4971751;28;20074;-85
2021/01/06 09:50:23;;;;;;;0.65;0.60;;;2.30;99.90;;;;;;4972162;28;20039;-85
2021/01/06 09:52:51;;;;;;;0.00;0.00;;;2.40;99.90;;;;;;4970977;28;20049;-86
2021/01/06 09:55:24;;;;;;;0.00;0.00;;;2.40;99.90;;;;;;4971288;28;20058;-87
2021/01/06 09:58:02;;;;;;;0.00;0.00;;;2.40;99.90;;;;;;4971510;28;20061;-86
2021/01/06 10:00:31;;;;;;;0.10;0.10;;;2.40;99.90;;;;;;4989039;28;20403;-86
2021/01/06 10:02:58;;;;;;;0.00;0.00;;;2.30;99.90;;;;;;4971353;28;20510;-86
2021/01/06 10:05:52;;;;;;;0.00;0.00;;;2.40;99.90;;;;;;4971446;28;20066;-86
2021/01/06 10:08:36;;;;;;;0.00;0.00;;;2.40;99.90;;;;;;4971534;28;20043;-85
2021/01/06 10:11:44;;;;;;;0.00;0.00;;;2.50;99.90;;;;;;4971401;28;20049;-86
2021/01/06 10:14:30;;;;;;;0.00;0.00;;;2.50;99.90;;;;;;4982110;28;20051;-86
2021/01/06 10:17:06;;;;;;;0.00;0.00;;;2.50;99.90;;;;;;4970929;28;20065;-86
2021/01/06 10:19:50;;;;;;;0.00;0.00;;;2.60;99.90;;;;;;4987540;28;20046;-86
2021/01/06 10:22:46;;;;;;;0.00;0.00;;;2.60;99.90;;;;;;4987217;28;20055;-85
2021/01/06 10:25:26;;;;;;;0.00;0.00;;;2.60;99.90;;;;;;4970640;28;20090;-87
2021/01/06 10:27:54;;;;;;;0.00;0.00;;;2.60;99.90;;;;;;4987315;28;20047;-87
2021/01/06 10:30:22;;;;;;;0.00;0.00;;;2.60;99.90;;;;;;4970855;28;20039;-86
2021/01/06 10:32:51;;;;;;;0.00;0.00;;;2.70;99.90;;;;;;4970672;28;20039;-86
2021/01/06 10:35:28;;;;;;;0.00;0.00;;;2.60;99.90;;;;;;4970988;28;20078;-85
2021/01/06 10:37:54;;;;;;;0.00;0.00;;;2.60;99.90;;;;;;4970990;28;20035;-85
2021/01/06 10:40:34;;;;;;;0.00;0.00;;;2.70;99.90;;;;;;4970873;28;20134;-85
2021/01/06 10:43:51;;;;;;;0.00;0.00;;;2.70;99.90;;;;;;4986796;28;20483;-85
2021/01/06 10:46:38;;;;;;;0.00;0.00;;;2.80;99.90;;;;;;4938112;28;20639;-86
2021/01/06 10:49:18;;;;;;;0.95;0.80;;;2.70;99.90;;;;;;4970659;28;20085;-87
2021/01/06 10:51:59;;;;;;;0.00;0.00;;;2.70;99.90;;;;;;4970869;28;20038;-86
2021/01/06 10:54:28;;;;;;;0.00;0.00;;;2.70;99.90;;;;;;4970398;28;20065;-86
2021/01/06 10:56:55;;;;;;;0.00;0.00;;;2.80;99.90;;;;;;4967227;28;20102;-85
2021/01/06 10:59:20;;;;;;;0.00;0.00;;;2.90;99.90;;;;;;4983823;28;20149;-85
2021/01/06 11:02:21;;;;;;;0.00;0.00;;;2.90;99.90;;;;;;4983833;28;20047;-86
2021/01/06 11:05:07;;;;;;;0.00;0.00;;;2.80;99.90;;;;;;4984242;28;20341;-86
2021/01/06 11:07:42;;;;;;;0.00;0.00;;;2.80;99.90;;;;;;4982986;28;20122;-85
2021/01/06 11:10:37;;;;;;;0.00;0.00;;;2.80;99.90;;;;;;4967111;29;20103;-86
2021/01/06 11:13:44;;;;;;;0.00;0.00;;;2.80;99.90;;;;;;4982972;28;20070;-85
2021/01/06 11:16:19;;;;;;;0.00;0.00;;;2.70;99.90;;;;;;4974960;28;20403;-86
2021/01/06 11:18:50;;;;;;;0.00;0.00;;;2.70;99.90;;;;;;4983060;28;20413;-85
2021/01/06 11:21:20;;;;;;;0.00;0.00;;;2.60;99.90;;;;;;4983046;28;20070;-92
2021/01/06 11:23:50;;;;;;;0.00;0.00;;;2.80;99.90;;;;;;4966578;28;20120;-85
2021/01/06 11:26:31;;;;;;;0.00;0.00;;;2.70;99.90;;;;;;4966771;29;20039;-86
2021/01/06 11:29:11;;;;;;;0.00;0.00;;;2.80;99.90;;;;;;4966869;29;20040;-86
2021/01/06 11:31:41;;;;;;;0.57;0.57;;;2.70;99.90;;;;;;4965958;28;20039;-86
2021/01/06 11:34:09;;;;;;;0.00;0.00;;;2.60;99.90;;;;;;4969662;28;20070;-85
2021/01/06 11:36:41;;;;;;;0.00;0.00;;;2.70;99.90;;;;;;4986036;28;20419;-86
2021/01/06 11:39:36;;;;;;;0.00;0.00;;;2.70;99.90;;;;;;4969864;28;20566;-85
2021/01/06 11:42:15;;;;;;;0.00;0.00;;;2.70;99.90;;;;;;4969677;28;20105;-85
2021/01/06 11:45:04;;;;;;;0.00;0.00;;;2.80;99.90;;;;;;4969451;28;20046;-85
2021/01/06 11:47:48;;;;;;;0.30;0.30;;;2.80;99.90;;;;;;4969588;28;20043;-85
2021/01/06 11:50:19;;;;;;;0.52;0.10;;;2.90;99.90;;;;;;4969830;28;20073;-85
2021/01/06 11:52:48;;;;;;;0.00;0.00;;;2.80;99.90;;;;;;4985788;28;20053;-86
2021/01/06 11:55:26;;;;;;;0.00;0.00;;;2.90;99.90;;;;;;4998134;23;20060;-85
2021/01/06 11:57:55;;;;;;;0.00;0.00;;;2.90;99.90;;;;;;5047495;28;20048;-85
2021/01/06 12:00:50;;;;;;;0.00;0.00;;;2.90;99.90;;;;;;5047688;28;20067;-86
2021/01/06 12:03:21;;;;;;;0.00;0.00;;;3.00;99.90;;;;;;5022579;28;20055;-85
2021/01/06 12:06:08;;;;;;;0.00;0.00;;;3.00;99.90;;;;;;5047869;28;20044;-86
2021/01/06 12:09:07;;;;;;;0.00;0.00;;;3.00;99.90;;;;;;5064435;28;20044;-87
2021/01/06 12:11:39;;;;;;;0.00;0.00;;;3.00;99.90;;;;;;5031049;28;20554;-86
2021/01/06 12:14:23;;;;;;;0.00;0.00;;;3.00;99.90;;;;;;5030972;28;20407;-86
2021/01/06 12:17:14;;;;;;;0.00;0.00;;;3.10;99.90;;;;;;5047619;28;20489;-86
2021/01/06 12:20:15;;;;;;;0.00;0.00;;;3.10;99.90;;;;;;5047689;28;20060;-89
2021/01/06 12:22:41;;;;;;;0.00;0.00;;;3.10;99.90;;;;;;5003754;28;20052;-86
2021/01/06 12:25:24;;;;;;;0.00;0.00;;;3.00;99.90;;;;;;4987536;28;20110;-86
2021/01/06 12:28:06;;;;;;;0.00;0.00;;;2.90;99.90;;;;;;4971609;28;20042;-86
2021/01/06 12:31:05;;;;;;;0.00;0.00;;;2.90;99.90;;;;;;4987440;28;20479;-86
2021/01/06 12:33:55;;;;;;;0.00;0.00;;;2.90;99.90;;;;;;4987326;28;20534;-86
2021/01/06 12:36:28;;;;;;;0.00;0.00;;;3.10;99.90;;;;;;4987466;28;20050;-86
2021/01/06 12:39:15;;;;;;;0.00;0.00;;;3.10;99.90;;;;;;5003709;28;20046;-85
2021/01/06 12:41:50;;;;;;;0.00;0.00;;;3.10;99.90;;;;;;4987022;28;20034;-86
2021/01/06 12:44:21;;;;;;;0.00;0.00;;;3.10;99.90;;;;;;4987356;28;20070;-86
2021/01/06 12:47:04;;;;;;;0.00;0.00;;;3.00;99.90;;;;;;5003411;28;20056;-86
2021/01/06 12:50:05;;;;;;;0.00;0.00;;;2.90;99.90;;;;;;4987312;28;20138;-86
2021/01/06 12:52:33;;;;;;;0.00;0.00;;;3.00;99.90;;;;;;4971032;28;20042;-86
2021/01/06 12:55:37;;;;;;;0.00;0.00;;;2.90;99.90;;;;;;4984511;28;20514;-86
2021/01/06 12:58:29;;;;;;;0.00;0.00;;;2.90;99.90;;;;;;5010711;28;20037;-86
2021/01/06 13:01:08;;;;;;;0.00;0.00;;;3.00;99.90;;;;;;5010802;28;20041;-86
2021/01/06 13:03:43;;;;;;;0.00;0.00;;;3.10;99.90;;;;;;5045039;28;20038;-87
2021/01/06 13:06:35;;;;;;;0.00;0.00;;;3.00;99.90;;;;;;5011093;28;20042;-86
2021/01/06 13:09:26;;;;;;;0.00;0.00;;;2.90;99.90;;;;;;5028184;28;20172;-86
2021/01/06 13:12:11;;;;;;;0.00;0.00;;;2.80;99.90;;;;;;5014461;28;20052;-86
2021/01/06 13:14:54;;;;;;;0.00;0.00;;;2.80;99.90;;;;;;5030825;28;20060;-86
2021/01/06 13:17:27;;;;;;;0.00;0.00;;;2.80;99.90;;;;;;5014544;28;20041;-86
2021/01/06 13:19:59;;;;;;;0.00;0.00;;;2.80;99.90;;;;;;5014726;28;20045;-87
2021/01/06 13:22:33;;;;;;;0.10;0.10;;;2.70;99.90;;;;;;5014580;28;20068;-86
2021/01/06 13:25:10;;;;;;;0.00;0.00;;;2.80;99.90;;;;;;5030505;28;20049;-89
2021/01/06 13:27:53;;;;;;;0.00;0.00;;;2.70;99.90;;;;;;5014400;28;20176;-86
2021/01/06 13:30:22;;;;;;;0.00;0.00;;;2.70;99.90;;;;;;5030484;28;20040;-87
2021/01/06 13:32:56;;;;;;;0.00;0.00;;;2.70;99.90;;;;;;5014473;28;20037;-86
2021/01/06 13:35:33;;;;;;;0.00;0.00;;;2.70;99.90;;;;;;5014255;28;20060;-86
2021/01/06 13:38:11;;;;;;;0.00;0.00;;;2.70;99.90;;;;;;5014465;28;20033;-86
2021/01/06 13:40:42;;;;;;;0.00;0.00;;;2.70;99.90;;;;;;5013961;28;20045;-86
2021/01/06 13:43:20;;;;;;;0.00;0.00;;;2.70;99.90;;;;;;5013952;28;20042;-86
2021/01/06 13:45:54;;;;;;;0.00;0.00;;;2.70;99.90;;;;;;5014107;28;20401;-86